DW8450 Weather Reports


Display with metric or nautical units.
time (UTC)temp
F
wind
direction
speed
MPH
gust
MPH
rain 1hr
in
rain 24hr
in
rain mn
in
humidity
%
barometer
mb
20210625073151 61 315 2.0 5.0 0.00 0.00 0.00 49 1006.3
20210625071631 61 315 1.0 3.0 0.00 0.00 0.00 48 1006.2
20210625070219 61 315 1.0 3.0 0.00 0.00 0.00 49 1006.3
20210625064621 61 315 1.0 3.0 0.00 0.00 0.00 49 1006.3
20210625063111 61 315 0.0 4.0 0.00 0.00 0.00 48 1006.3
20210625061614 61 315 2.0 4.0 0.00 0.00 0.00 49 1006.2
20210625060123 61 315 0.0 3.0 0.00 0.00 0.00 48 1006.1
20210625054605 61 315 1.0 3.0 0.00 0.00 0.00 47 1006.2
20210625053141 61 315 0.0 2.0 0.00 0.00 0.00 47 1005.9
20210625051607 62 315 0.0 0.0 0.00 0.00 0.00 45 1005.9
20210625050158 62 315 0.0 0.0 0.00 0.00 0.00 44 1005.9
20210625044554 63 315 0.0 0.0 0.00 0.00 0.00 43 1005.9
20210625043119 64 315 0.0 2.0 0.00 0.00 0.00 43 1005.7
20210625041625 64 315 2.0 4.0 0.00 0.00 0.00 42 1005.5
20210625040052 65 315 2.0 4.0 0.00 0.00 0.00 42 1005.3
20210625034633 65 315 0.0 0.0 0.00 0.00 0.00 42 1004.9
20210625033106 65 315 0.0 0.0 0.00 0.00 0.00 42 1004.7
20210625031629 66 315 0.0 0.0 0.00 0.00 0.00 43 1004.7
20210625030051 67 315 0.0 0.0 0.00 0.00 0.00 41 1004.4
20210625024609 69 315 0.0 0.0 0.00 0.00 0.00 40 1004.4
20210625023119 69 315 0.0 2.0 0.00 0.00 0.00 39 1004.4
20210625021554 70 315 0.0 2.0 0.00 0.00 0.00 38 1004.2
20210625020123 71 315 2.0 4.0 0.00 0.00 0.00 38 1004.1
20210625014637 72 315 0.0 5.0 0.00 0.00 0.00 38 1004.0
20210625013050 73 316 4.0 7.0 0.00 0.00 0.00 36 1004.5
20210625011618 73 319 5.0 7.0 0.00 0.00 0.00 36 1004.5
20210625010049 72 323 1.0 4.0 0.00 0.00 0.00 36 1004.0
20210625004606 71 323 2.0 9.0 0.00 0.00 0.00 41 1003.6
20210625003048 70 306 8.0 12.0 0.00 0.00 0.00 43 1004.2
20210625001546 71 315 6.0 12.0 0.00 0.00 0.00 41 1004.5
20210625000055 71 321 7.0 11.0 0.00 0.00 0.00 42 1004.9
20210624234603 69 304 0.0 3.0 0.00 0.00 0.00 44 1005.4
20210624233029 68 304 4.0 13.0 0.00 0.00 0.00 47 1005.2
20210624231528 69 286 10.0 16.0 0.00 0.00 0.00 49 1005.2
20210624230039 69 270 8.0 17.0 0.00 0.00 0.00 46 1005.2
20210624224531 70 276 10.0 23.0 0.00 0.00 0.00 44 1005.7
20210624223117 71 279 12.0 25.0 0.00 0.00 0.00 42 1005.7
20210624221546 74 267 16.0 29.0 0.00 0.00 0.00 40 1004.8
20210624220048 80 262 14.0 25.0 0.00 0.00 0.00 30 1003.9
20210624214606 83 273 8.0 16.0 0.00 0.00 0.00 27 1003.3
20210624213102 85 282 6.0 12.0 0.00 0.00 0.00 26 1003.2
20210624211536 86 302 6.0 14.0 0.00 0.00 0.00 24 1003.0
20210624210021 88 254 6.0 13.0 0.00 0.00 0.00 22 1003.2
20210624204523 87 270 5.0 19.0 0.00 0.00 0.00 23 1003.5
20210624203015 87 280 5.0 14.0 0.00 0.00 0.00 23 1003.9
20210624201520 86 273 6.0 15.0 0.00 0.00 0.00 23 1004.2
20210624200015 86 292 7.0 17.0 0.00 0.00 0.00 23 1004.3
20210624194515 86 250 6.0 13.0 0.00 0.00 0.00 22 1004.5
20210624193013 85 326 8.0 16.0 0.00 0.00 0.00 23 1004.6
20210624191509 86 279 5.0 10.0 0.00 0.00 0.00 23 1005.0
20210624190009 85 296 7.0 12.0 0.00 0.00 0.00 22 1005.0
20210624184505 84 291 4.0 12.0 0.00 0.00 0.00 24 1005.1
20210624183009 85 266 3.0 10.0 0.00 0.00 0.00 23 1005.4
20210624181502 83 248 4.0 10.0 0.00 0.00 0.00 26 1005.5
20210624180217 83 282 5.0 12.0 0.00 0.00 0.00 25 1005.6
20210624174647 82 277 5.0 13.0 0.00 0.00 0.00 26 1005.6
20210624173215 82 254 4.0 16.0 0.00 0.00 0.00 25 1005.6
20210624171723 81 283 5.0 12.0 0.00 0.00 0.00 27 1005.7
20210624170223 80 282 6.0 14.0 0.00 0.00 0.00 29 1005.6
20210624164608 80 296 5.0 10.0 0.00 0.00 0.00 29 1005.6
20210624163126 79 309 7.0 13.0 0.00 0.00 0.00 30 1005.7
20210624161557 78 302 7.0 16.0 0.00 0.00 0.00 31 1005.6
20210624160102 76 335 7.0 15.0 0.00 0.00 0.00 33 1005.5
20210624154534 75 321 7.0 14.0 0.00 0.00 0.00 34 1005.6
20210624153056 75 304 8.0 14.0 0.00 0.00 0.00 34 1005.8
20210624151528 73 302 9.0 14.0 0.00 0.00 0.00 36 1005.8
20210624150034 71 310 4.0 14.0 0.00 0.00 0.00 42 1005.9
20210624144523 70 296 6.0 12.0 0.00 0.00 0.00 45 1005.9
20210624143018 69 300 5.0 11.0 0.00 0.00 0.00 46 1006.0
20210624141515 68 289 5.0 11.0 0.00 0.00 0.00 48 1005.9
20210624140039 66 301 5.0 12.0 0.00 0.00 0.00 52 1005.7
20210624134512 64 305 5.0 9.0 0.00 0.00 0.00 56 1005.6
20210624133034 63 313 3.0 7.0 0.00 0.00 0.00 57 1005.8
20210624131508 63 313 3.0 8.0 0.00 0.00 0.00 57 1005.9
20210624130006 63 314 3.0 5.0 0.00 0.00 0.00 57 1005.9
20210624124512 62 314 3.0 7.0 0.00 0.00 0.00 57 1005.8
20210624123004 62 316 4.0 7.0 0.00 0.00 0.00 57 1005.5
20210624121503 62 317 3.0 6.0 0.00 0.00 0.00 57 1005.6
20210624120143 62 319 2.0 4.0 0.00 0.00 0.00 56 1005.6
20210624114653 62 315 0.0 1.0 0.00 0.00 0.00 54 1005.6
20210624113103 63 315 0.0 4.0 0.00 0.00 0.00 54 1005.4
20210624111813 64 309 2.0 10.0 0.00 0.00 0.00 53 1005.2
20210624110133 66 295 4.0 9.0 0.00 0.00 0.00 49 1005.2
20210624104816 67 323 1.0 4.0 0.00 0.00 0.00 46 1005.3
20210624103149 66 346 2.0 7.0 0.00 0.00 0.00 46 1005.1
20210624101602 66 344 3.0 8.0 0.00 0.00 0.00 47 1005.4
20210624100108 66 319 2.0 12.0 0.00 0.00 0.00 48 1005.4
20210624094553 66 336 5.0 14.0 0.00 0.00 0.00 49 1005.7
20210624093228 67 298 6.0 10.0 0.00 0.00 0.00 46 1005.9
20210624091655 68 309 4.0 8.0 0.00 0.00 0.00 44 1005.4
20210624090127 68 325 5.0 11.0 0.00 0.00 0.00 43 1004.6
20210624084634 68 10 8.0 18.0 0.00 0.00 0.00 44 1004.3
20210624083106 67 335 10.0 22.0 0.00 0.00 0.00 45 1004.6
20210624081540 68 321 10.0 23.0 0.00 0.00 0.00 44 1005.1
20210624080141 68 336 11.0 27.0 0.00 0.00 0.00 44 1006.0
20210624074543 66 282 1.0 6.0 0.00 0.00 0.00 49 1006.0